sensor_id;sensor_type;location;lat;lon;timestamp;temperature;humidity
10678;DHT22;5387;48.722;9.110;2023-05-15T00:01:56;8.90;99.90
10678;DHT22;5387;48.722;9.110;2023-05-15T00:04:22;8.90;99.90
10678;DHT22;5387;48.722;9.110;2023-05-15T00:06:49;8.90;99.90
10678;DHT22;5387;48.722;9.110;2023-05-15T00:09:17;8.90;99.90
10678;DHT22;5387;48.722;9.110;2023-05-15T00:11:44;8.90;99.90
10678;DHT22;5387;48.722;9.110;2023-05-15T00:14:12;8.90;99.90
10678;DHT22;5387;48.722;9.110;2023-05-15T00:16:39;9.00;99.90
10678;DHT22;5387;48.722;9.110;2023-05-15T00:19:06;9.00;99.90
10678;DHT22;5387;48.722;9.110;2023-05-15T00:21:33;9.20;99.90
10678;DHT22;5387;48.722;9.110;2023-05-15T00:24:00;9.00;99.90
10678;DHT22;5387;48.722;9.110;2023-05-15T00:26:26;9.00;99.90
10678;DHT22;5387;48.722;9.110;2023-05-15T00:28:53;9.00;99.90
10678;DHT22;5387;48.722;9.110;2023-05-15T00:31:21;8.90;99.90
10678;DHT22;5387;48.722;9.110;2023-05-15T00:33:48;9.00;99.90
10678;DHT22;5387;48.722;9.110;2023-05-15T00:36:15;8.90;99.90
10678;DHT22;5387;48.722;9.110;2023-05-15T00:38:42;9.00;99.90
10678;DHT22;5387;48.722;9.110;2023-05-15T00:41:09;9.00;99.90
10678;DHT22;5387;48.722;9.110;2023-05-15T00:43:38;9.00;99.90
10678;DHT22;5387;48.722;9.110;2023-05-15T00:46:06;8.90;99.90
10678;DHT22;5387;48.722;9.110;2023-05-15T00:48:34;9.00;99.90
10678;DHT22;5387;48.722;9.110;2023-05-15T00:51:01;9.00;99.90
10678;DHT22;5387;48.722;9.110;2023-05-15T00:53:28;9.00;99.90
10678;DHT22;5387;48.722;9.110;2023-05-15T00:55:57;9.10;99.90
10678;DHT22;5387;48.722;9.110;2023-05-15T00:58:25;9.10;99.90
10678;DHT22;5387;48.722;9.110;2023-05-15T01:00:52;9.10;99.90
10678;DHT22;5387;48.722;9.110;2023-05-15T01:03:19;9.20;99.90
10678;DHT22;5387;48.722;9.110;2023-05-15T01:05:48;9.10;99.90
10678;DHT22;5387;48.722;9.110;2023-05-15T01:08:19;9.10;99.90
10678;DHT22;5387;48.722;9.110;2023-05-15T01:10:47;9.00;99.90
10678;DHT22;5387;48.722;9.110;2023-05-15T01:13:15;9.00;99.90
10678;DHT22;5387;48.722;9.110;2023-05-15T01:15:42;9.00;99.90
10678;DHT22;5387;48.722;9.110;2023-05-15T01:18:09;9.10;99.90
10678;DHT22;5387;48.722;9.110;2023-05-15T01:20:43;9.10;99.90
10678;DHT22;5387;48.722;9.110;2023-05-15T01:23:22;9.20;99.90
10678;DHT22;5387;48.722;9.110;2023-05-15T01:28:57;9.30;99.90
10678;DHT22;5387;48.722;9.110;2023-05-15T01:31:25;9.40;99.90
10678;DHT22;5387;48.722;9.110;2023-05-15T01:33:58;9.40;99.90
10678;DHT22;5387;48.722;9.110;2023-05-15T01:36:34;9.40;99.90
10678;DHT22;5387;48.722;9.110;2023-05-15T01:39:04;9.40;99.90
10678;DHT22;5387;48.722;9.110;2023-05-15T01:41:34;9.50;99.90
10678;DHT22;5387;48.722;9.110;2023-05-15T01:44:06;9.50;99.90
10678;DHT22;5387;48.722;9.110;2023-05-15T01:46:37;9.50;99.90
10678;DHT22;5387;48.722;9.110;2023-05-15T01:49:08;9.60;99.90
10678;DHT22;5387;48.722;9.110;2023-05-15T01:51:37;9.60;99.90
10678;DHT22;5387;48.722;9.110;2023-05-15T01:54:06;9.60;99.90
10678;DHT22;5387;48.722;9.110;2023-05-15T01:56:35;9.60;99.90
10678;DHT22;5387;48.722;9.110;2023-05-15T01:59:03;9.60;99.90
10678;DHT22;5387;48.722;9.110;2023-05-15T02:01:31;9.60;99.90
10678;DHT22;5387;48.722;9.110;2023-05-15T02:03:59;9.70;99.90
10678;DHT22;5387;48.722;9.110;2023-05-15T02:06:27;9.70;99.90
10678;DHT22;5387;48.722;9.110;2023-05-15T02:08:56;9.70;99.90
10678;DHT22;5387;48.722;9.110;2023-05-15T02:11:24;9.80;99.90
10678;DHT22;5387;48.722;9.110;2023-05-15T02:13:51;9.90;99.90
10678;DHT22;5387;48.722;9.110;2023-05-15T02:16:19;10.00;99.90
10678;DHT22;5387;48.722;9.110;2023-05-15T02:18:46;9.80;99.90
10678;DHT22;5387;48.722;9.110;2023-05-15T02:21:13;10.00;99.90
10678;DHT22;5387;48.722;9.110;2023-05-15T02:23:40;10.00;99.90
10678;DHT22;5387;48.722;9.110;2023-05-15T02:26:13;10.00;99.90
10678;DHT22;5387;48.722;9.110;2023-05-15T02:28:52;10.00;99.90
10678;DHT22;5387;48.722;9.110;2023-05-15T02:31:30;10.10;99.90
10678;DHT22;5387;48.722;9.110;2023-05-15T02:34:02;10.10;99.90
10678;DHT22;5387;48.722;9.110;2023-05-15T02:36:33;10.10;99.90
10678;DHT22;5387;48.722;9.110;2023-05-15T02:39:04;10.10;99.90
10678;DHT22;5387;48.722;9.110;2023-05-15T02:41:32;10.00;99.90
10678;DHT22;5387;48.722;9.110;2023-05-15T02:44:01;10.10;99.90
10678;DHT22;5387;48.722;9.110;2023-05-15T02:46:30;10.10;99.90
10678;DHT22;5387;48.722;9.110;2023-05-15T02:48:57;10.00;99.90
10678;DHT22;5387;48.722;9.110;2023-05-15T02:51:25;10.10;99.90
10678;DHT22;5387;48.722;9.110;2023-05-15T02:53:52;10.10;99.90
10678;DHT22;5387;48.722;9.110;2023-05-15T02:56:20;10.10;99.90
10678;DHT22;5387;48.722;9.110;2023-05-15T02:58:47;10.10;99.90
10678;DHT22;5387;48.722;9.110;2023-05-15T03:01:14;10.20;99.90
10678;DHT22;5387;48.722;9.110;2023-05-15T03:03:42;10.10;99.90
10678;DHT22;5387;48.722;9.110;2023-05-15T03:06:09;10.10;99.90
10678;DHT22;5387;48.722;9.110;2023-05-15T03:08:35;10.10;99.90
10678;DHT22;5387;48.722;9.110;2023-05-15T03:11:02;10.10;99.90
10678;DHT22;5387;48.722;9.110;2023-05-15T03:13:29;10.20;99.90
10678;DHT22;5387;48.722;9.110;2023-05-15T03:15:56;10.20;99.90
10678;DHT22;5387;48.722;9.110;2023-05-15T03:18:22;10.20;99.90
10678;DHT22;5387;48.722;9.110;2023-05-15T03:20:52;10.20;99.90
10678;DHT22;5387;48.722;9.110;2023-05-15T03:23:19;10.20;99.90
10678;DHT22;5387;48.722;9.110;2023-05-15T03:25:46;10.20;99.90
10678;DHT22;5387;48.722;9.110;2023-05-15T03:28:12;10.20;99.90
10678;DHT22;5387;48.722;9.110;2023-05-15T03:30:42;10.30;99.90
10678;DHT22;5387;48.722;9.110;2023-05-15T03:33:10;10.30;99.90
10678;DHT22;5387;48.722;9.110;2023-05-15T03:35:36;10.30;99.90
10678;DHT22;5387;48.722;9.110;2023-05-15T03:38:04;10.40;99.90
10678;DHT22;5387;48.722;9.110;2023-05-15T03:40:31;10.30;99.90
10678;DHT22;5387;48.722;9.110;2023-05-15T03:42:58;10.40;99.90
10678;DHT22;5387;48.722;9.110;2023-05-15T03:45:25;10.50;99.90
10678;DHT22;5387;48.722;9.110;2023-05-15T03:47:52;10.50;99.90
10678;DHT22;5387;48.722;9.110;2023-05-15T03:50:19;10.70;99.90
10678;DHT22;5387;48.722;9.110;2023-05-15T03:52:46;10.60;99.90
10678;DHT22;5387;48.722;9.110;2023-05-15T03:55:14;10.70;99.90
10678;DHT22;5387;48.722;9.110;2023-05-15T03:57:41;10.70;99.90
10678;DHT22;5387;48.722;9.110;2023-05-15T04:00:09;10.70;99.90
10678;DHT22;5387;48.722;9.110;2023-05-15T04:02:36;10.90;99.90
10678;DHT22;5387;48.722;9.110;2023-05-15T04:05:04;10.90;99.90
10678;DHT22;5387;48.722;9.110;2023-05-15T04:07:32;11.00;99.90
10678;DHT22;5387;48.722;9.110;2023-05-15T04:09:59;11.00;99.90
10678;DHT22;5387;48.722;9.110;2023-05-15T04:12:28;11.10;99.90
10678;DHT22;5387;48.722;9.110;2023-05-15T04:14:55;11.10;99.90
10678;DHT22;5387;48.722;9.110;2023-05-15T04:17:22;11.10;99.90
10678;DHT22;5387;48.722;9.110;2023-05-15T04:19:49;11.10;99.90
10678;DHT22;5387;48.722;9.110;2023-05-15T04:22:15;11.20;99.90
10678;DHT22;5387;48.722;9.110;2023-05-15T04:24:42;11.30;99.90
10678;DHT22;5387;48.722;9.110;2023-05-15T04:27:09;11.30;99.90
10678;DHT22;5387;48.722;9.110;2023-05-15T04:29:37;11.40;99.90
10678;DHT22;5387;48.722;9.110;2023-05-15T04:32:04;11.40;99.90
10678;DHT22;5387;48.722;9.110;2023-05-15T04:34:31;11.40;99.90
10678;DHT22;5387;48.722;9.110;2023-05-15T04:36:58;11.50;99.90
10678;DHT22;5387;48.722;9.110;2023-05-15T04:39:25;11.50;99.90
10678;DHT22;5387;48.722;9.110;2023-05-15T04:41:52;11.50;99.90
10678;DHT22;5387;48.722;9.110;2023-05-15T04:44:19;11.50;99.90
10678;DHT22;5387;48.722;9.110;2023-05-15T04:46:47;11.60;99.90
10678;DHT22;5387;48.722;9.110;2023-05-15T04:49:14;11.70;99.90
10678;DHT22;5387;48.722;9.110;2023-05-15T04:51:40;11.70;99.90
10678;DHT22;5387;48.722;9.110;2023-05-15T04:54:07;11.70;99.90
10678;DHT22;5387;48.722;9.110;2023-05-15T04:56:34;11.70;99.90
10678;DHT22;5387;48.722;9.110;2023-05-15T04:59:01;11.60;99.90
10678;DHT22;5387;48.722;9.110;2023-05-15T05:01:28;11.70;99.90
10678;DHT22;5387;48.722;9.110;2023-05-15T05:03:56;11.80;99.90
10678;DHT22;5387;48.722;9.110;2023-05-15T05:06:23;11.80;99.90
10678;DHT22;5387;48.722;9.110;2023-05-15T05:08:50;11.80;99.90
10678;DHT22;5387;48.722;9.110;2023-05-15T05:11:17;11.70;99.90
10678;DHT22;5387;48.722;9.110;2023-05-15T05:13:43;11.80;99.90
10678;DHT22;5387;48.722;9.110;2023-05-15T05:16:10;11.90;99.90
10678;DHT22;5387;48.722;9.110;2023-05-15T05:18:37;12.00;99.90
10678;DHT22;5387;48.722;9.110;2023-05-15T05:21:05;12.00;99.90
10678;DHT22;5387;48.722;9.110;2023-05-15T05:23:32;12.00;99.90
10678;DHT22;5387;48.722;9.110;2023-05-15T05:25:59;12.00;99.90
10678;DHT22;5387;48.722;9.110;2023-05-15T05:28:26;12.00;99.90
10678;DHT22;5387;48.722;9.110;2023-05-15T05:30:53;11.80;99.90
10678;DHT22;5387;48.722;9.110;2023-05-15T05:33:19;11.90;99.90
10678;DHT22;5387;48.722;9.110;2023-05-15T05:35:46;11.90;99.90
10678;DHT22;5387;48.722;9.110;2023-05-15T05:38:14;11.90;99.90
10678;DHT22;5387;48.722;9.110;2023-05-15T05:40:41;12.10;99.90
10678;DHT22;5387;48.722;9.110;2023-05-15T05:43:08;12.00;99.90
10678;DHT22;5387;48.722;9.110;2023-05-15T05:45:35;12.10;99.90
10678;DHT22;5387;48.722;9.110;2023-05-15T05:48:02;12.00;99.90
10678;DHT22;5387;48.722;9.110;2023-05-15T05:50:29;12.10;99.90
10678;DHT22;5387;48.722;9.110;2023-05-15T05:52:55;12.20;99.90
10678;DHT22;5387;48.722;9.110;2023-05-15T05:55:24;12.10;99.90
10678;DHT22;5387;48.722;9.110;2023-05-15T05:57:50;12.00;99.90
10678;DHT22;5387;48.722;9.110;2023-05-15T06:00:18;12.20;99.90
10678;DHT22;5387;48.722;9.110;2023-05-15T06:02:45;12.30;99.90
10678;DHT22;5387;48.722;9.110;2023-05-15T06:05:12;12.40;99.90
10678;DHT22;5387;48.722;9.110;2023-05-15T06:07:39;12.50;99.90
10678;DHT22;5387;48.722;9.110;2023-05-15T06:10:08;12.60;99.90
10678;DHT22;5387;48.722;9.110;2023-05-15T06:12:36;12.60;99.90
10678;DHT22;5387;48.722;9.110;2023-05-15T06:15:03;12.50;99.90
10678;DHT22;5387;48.722;9.110;2023-05-15T06:17:30;12.60;99.90
10678;DHT22;5387;48.722;9.110;2023-05-15T06:19:57;12.50;99.90
10678;DHT22;5387;48.722;9.110;2023-05-15T06:22:24;12.50;99.90
10678;DHT22;5387;48.722;9.110;2023-05-15T06:24:51;12.80;99.90
10678;DHT22;5387;48.722;9.110;2023-05-15T06:27:18;12.70;99.90
10678;DHT22;5387;48.722;9.110;2023-05-15T06:29:46;12.90;99.90
10678;DHT22;5387;48.722;9.110;2023-05-15T06:32:13;12.70;99.90
10678;DHT22;5387;48.722;9.110;2023-05-15T06:34:39;12.70;99.90
10678;DHT22;5387;48.722;9.110;2023-05-15T06:37:06;13.00;99.90
10678;DHT22;5387;48.722;9.110;2023-05-15T06:39:33;12.90;99.90
10678;DHT22;5387;48.722;9.110;2023-05-15T06:42:00;13.00;99.90
10678;DHT22;5387;48.722;9.110;2023-05-15T06:44:26;13.00;99.90
10678;DHT22;5387;48.722;9.110;2023-05-15T06:46:55;13.30;99.90
10678;DHT22;5387;48.722;9.110;2023-05-15T06:49:22;13.60;99.90
10678;DHT22;5387;48.722;9.110;2023-05-15T06:51:49;13.60;99.90
10678;DHT22;5387;48.722;9.110;2023-05-15T06:54:16;13.80;99.90
10678;DHT22;5387;48.722;9.110;2023-05-15T06:56:43;13.60;99.90
10678;DHT22;5387;48.722;9.110;2023-05-15T06:59:10;13.50;99.90
10678;DHT22;5387;48.722;9.110;2023-05-15T07:01:36;13.50;99.90
10678;DHT22;5387;48.722;9.110;2023-05-15T07:04:05;13.80;99.90
10678;DHT22;5387;48.722;9.110;2023-05-15T07:06:31;14.10;99.90
10678;DHT22;5387;48.722;9.110;2023-05-15T07:08:59;14.10;99.90
10678;DHT22;5387;48.722;9.110;2023-05-15T07:11:26;14.00;99.90
10678;DHT22;5387;48.722;9.110;2023-05-15T07:13:53;13.80;99.90
10678;DHT22;5387;48.722;9.110;2023-05-15T07:16:20;13.80;99.90
10678;DHT22;5387;48.722;9.110;2023-05-15T07:18:47;14.00;99.90
10678;DHT22;5387;48.722;9.110;2023-05-15T07:21:15;14.10;99.90
10678;DHT22;5387;48.722;9.110;2023-05-15T07:23:42;14.30;99.90
10678;DHT22;5387;48.722;9.110;2023-05-15T07:26:09;14.20;99.90
10678;DHT22;5387;48.722;9.110;2023-05-15T07:28:36;14.40;99.90
10678;DHT22;5387;48.722;9.110;2023-05-15T07:31:03;14.60;99.90
10678;DHT22;5387;48.722;9.110;2023-05-15T07:33:30;14.60;99.90
10678;DHT22;5387;48.722;9.110;2023-05-15T07:35:56;14.60;99.90
10678;DHT22;5387;48.722;9.110;2023-05-15T07:38:25;14.70;99.90
10678;DHT22;5387;48.722;9.110;2023-05-15T07:40:51;15.00;99.90
10678;DHT22;5387;48.722;9.110;2023-05-15T07:43:18;15.10;99.90
10678;DHT22;5387;48.722;9.110;2023-05-15T07:45:45;14.90;99.90
10678;DHT22;5387;48.722;9.110;2023-05-15T07:48:13;14.90;99.90
10678;DHT22;5387;48.722;9.110;2023-05-15T07:50:40;14.70;99.90
10678;DHT22;5387;48.722;9.110;2023-05-15T07:53:07;14.60;99.90
10678;DHT22;5387;48.722;9.110;2023-05-15T07:55:35;14.50;99.90
10678;DHT22;5387;48.722;9.110;2023-05-15T07:58:01;14.60;99.90
10678;DHT22;5387;48.722;9.110;2023-05-15T08:00:28;14.50;99.90
10678;DHT22;5387;48.722;9.110;2023-05-15T08:02:55;14.70;99.90
10678;DHT22;5387;48.722;9.110;2023-05-15T08:05:22;14.80;99.90
10678;DHT22;5387;48.722;9.110;2023-05-15T08:07:49;14.90;99.90
10678;DHT22;5387;48.722;9.110;2023-05-15T08:10:18;14.90;99.90
10678;DHT22;5387;48.722;9.110;2023-05-15T08:12:46;14.90;99.90
10678;DHT22;5387;48.722;9.110;2023-05-15T08:15:15;14.90;99.90
10678;DHT22;5387;48.722;9.110;2023-05-15T08:17:42;15.40;99.90
10678;DHT22;5387;48.722;9.110;2023-05-15T08:20:10;15.80;99.90
10678;DHT22;5387;48.722;9.110;2023-05-15T08:22:37;15.70;99.90
10678;DHT22;5387;48.722;9.110;2023-05-15T08:25:04;15.70;99.90
10678;DHT22;5387;48.722;9.110;2023-05-15T08:27:31;15.60;99.90
10678;DHT22;5387;48.722;9.110;2023-05-15T08:29:59;15.40;99.90
10678;DHT22;5387;48.722;9.110;2023-05-15T08:32:26;15.30;99.90
10678;DHT22;5387;48.722;9.110;2023-05-15T08:34:53;15.50;99.90
10678;DHT22;5387;48.722;9.110;2023-05-15T08:37:20;15.40;99.90
10678;DHT22;5387;48.722;9.110;2023-05-15T08:39:47;15.70;99.90
10678;DHT22;5387;48.722;9.110;2023-05-15T08:42:18;15.70;99.90
10678;DHT22;5387;48.722;9.110;2023-05-15T08:44:46;15.60;99.90
10678;DHT22;5387;48.722;9.110;2023-05-15T08:47:15;15.50;99.90
10678;DHT22;5387;48.722;9.110;2023-05-15T08:49:50;15.90;99.90
10678;DHT22;5387;48.722;9.110;2023-05-15T08:52:17;16.30;99.90
10678;DHT22;5387;48.722;9.110;2023-05-15T08:54:44;16.30;99.90
10678;DHT22;5387;48.722;9.110;2023-05-15T08:57:12;16.10;99.90
10678;DHT22;5387;48.722;9.110;2023-05-15T08:59:39;16.00;99.90
10678;DHT22;5387;48.722;9.110;2023-05-15T09:02:06;15.80;99.90
10678;DHT22;5387;48.722;9.110;2023-05-15T09:04:35;15.80;99.90
10678;DHT22;5387;48.722;9.110;2023-05-15T09:07:02;15.60;99.90
10678;DHT22;5387;48.722;9.110;2023-05-15T09:09:31;15.60;99.90
10678;DHT22;5387;48.722;9.110;2023-05-15T09:11:58;15.80;99.90
10678;DHT22;5387;48.722;9.110;2023-05-15T09:14:26;16.10;99.90
10678;DHT22;5387;48.722;9.110;2023-05-15T09:16:52;16.50;99.90
10678;DHT22;5387;48.722;9.110;2023-05-15T09:19:19;17.00;99.90
10678;DHT22;5387;48.722;9.110;2023-05-15T09:21:48;17.20;99.90
10678;DHT22;5387;48.722;9.110;2023-05-15T09:24:16;17.70;99.90
10678;DHT22;5387;48.722;9.110;2023-05-15T09:26:44;18.00;99.90
10678;DHT22;5387;48.722;9.110;2023-05-15T09:29:14;17.30;99.90
10678;DHT22;5387;48.722;9.110;2023-05-15T09:31:41;16.70;99.90
10678;DHT22;5387;48.722;9.110;2023-05-15T09:34:08;16.70;99.90
10678;DHT22;5387;48.722;9.110;2023-05-15T09:36:35;16.80;99.90
10678;DHT22;5387;48.722;9.110;2023-05-15T09:39:08;16.20;99.90
10678;DHT22;5387;48.722;9.110;2023-05-15T09:41:40;15.70;99.90
10678;DHT22;5387;48.722;9.110;2023-05-15T09:44:17;15.60;99.90
10678;DHT22;5387;48.722;9.110;2023-05-15T09:46:45;15.40;99.90
10678;DHT22;5387;48.722;9.110;2023-05-15T09:49:12;15.50;99.90
10678;DHT22;5387;48.722;9.110;2023-05-15T09:51:39;15.30;99.90
10678;DHT22;5387;48.722;9.110;2023-05-15T09:54:06;15.40;99.90
10678;DHT22;5387;48.722;9.110;2023-05-15T09:56:42;15.50;99.90
10678;DHT22;5387;48.722;9.110;2023-05-15T09:59:12;15.80;99.90
10678;DHT22;5387;48.722;9.110;2023-05-15T10:01:41;15.70;99.90
10678;DHT22;5387;48.722;9.110;2023-05-15T10:04:09;16.00;99.90
10678;DHT22;5387;48.722;9.110;2023-05-15T10:06:37;16.60;99.90
10678;DHT22;5387;48.722;9.110;2023-05-15T10:09:04;16.90;99.90
10678;DHT22;5387;48.722;9.110;2023-05-15T10:11:33;17.20;99.90
10678;DHT22;5387;48.722;9.110;2023-05-15T10:14:03;17.50;99.90
10678;DHT22;5387;48.722;9.110;2023-05-15T10:16:32;17.40;99.90
10678;DHT22;5387;48.722;9.110;2023-05-15T10:19:00;17.40;99.90
10678;DHT22;5387;48.722;9.110;2023-05-15T10:21:30;17.10;99.90
10678;DHT22;5387;48.722;9.110;2023-05-15T10:23:58;16.80;99.90
10678;DHT22;5387;48.722;9.110;2023-05-15T10:26:30;16.60;99.90
10678;DHT22;5387;48.722;9.110;2023-05-15T10:28:59;16.80;99.90
10678;DHT22;5387;48.722;9.110;2023-05-15T10:31:28;17.30;99.90
10678;DHT22;5387;48.722;9.110;2023-05-15T10:33:55;17.50;99.90
10678;DHT22;5387;48.722;9.110;2023-05-15T10:36:22;17.20;99.90
10678;DHT22;5387;48.722;9.110;2023-05-15T10:38:51;17.10;99.90
10678;DHT22;5387;48.722;9.110;2023-05-15T10:41:19;17.60;99.90
10678;DHT22;5387;48.722;9.110;2023-05-15T10:43:48;17.50;99.90
10678;DHT22;5387;48.722;9.110;2023-05-15T10:46:15;17.20;99.90
10678;DHT22;5387;48.722;9.110;2023-05-15T10:48:44;17.20;99.90
10678;DHT22;5387;48.722;9.110;2023-05-15T10:51:17;17.30;99.90
10678;DHT22;5387;48.722;9.110;2023-05-15T10:53:45;17.30;99.90
10678;DHT22;5387;48.722;9.110;2023-05-15T10:56:13;17.20;99.90
10678;DHT22;5387;48.722;9.110;2023-05-15T10:58:44;17.10;99.90
10678;DHT22;5387;48.722;9.110;2023-05-15T11:01:24;16.90;99.90
10678;DHT22;5387;48.722;9.110;2023-05-15T11:04:07;17.20;99.90
10678;DHT22;5387;48.722;9.110;2023-05-15T11:06:35;17.60;99.90
10678;DHT22;5387;48.722;9.110;2023-05-15T11:12:07;17.50;99.90
10678;DHT22;5387;48.722;9.110;2023-05-15T11:14:38;17.70;99.90
10678;DHT22;5387;48.722;9.110;2023-05-15T11:17:07;18.10;99.90
10678;DHT22;5387;48.722;9.110;2023-05-15T11:19:55;18.20;99.90
10678;DHT22;5387;48.722;9.110;2023-05-15T11:22:30;18.40;99.90
10678;DHT22;5387;48.722;9.110;2023-05-15T11:24:59;18.50;99.90
10678;DHT22;5387;48.722;9.110;2023-05-15T11:27:28;19.10;99.90
10678;DHT22;5387;48.722;9.110;2023-05-15T11:30:06;19.70;99.90
10678;DHT22;5387;48.722;9.110;2023-05-15T11:32:47;19.30;99.90
10678;DHT22;5387;48.722;9.110;2023-05-15T11:35:20;18.60;99.90
10678;DHT22;5387;48.722;9.110;2023-05-15T11:37:49;18.70;99.90
10678;DHT22;5387;48.722;9.110;2023-05-15T11:40:20;18.40;99.90
10678;DHT22;5387;48.722;9.110;2023-05-15T11:42:58;17.50;99.90
10678;DHT22;5387;48.722;9.110;2023-05-15T11:45:25;17.80;99.90
10678;DHT22;5387;48.722;9.110;2023-05-15T11:47:52;18.40;99.90
10678;DHT22;5387;48.722;9.110;2023-05-15T11:50:20;18.20;99.90
10678;DHT22;5387;48.722;9.110;2023-05-15T11:52:48;17.80;99.90
10678;DHT22;5387;48.722;9.110;2023-05-15T11:55:16;18.00;99.90
10678;DHT22;5387;48.722;9.110;2023-05-15T11:57:45;17.80;99.90
10678;DHT22;5387;48.722;9.110;2023-05-15T12:00:12;17.70;99.90
10678;DHT22;5387;48.722;9.110;2023-05-15T12:02:39;17.60;99.90
10678;DHT22;5387;48.722;9.110;2023-05-15T12:05:07;17.40;99.90
10678;DHT22;5387;48.722;9.110;2023-05-15T12:07:37;17.20;99.90
10678;DHT22;5387;48.722;9.110;2023-05-15T12:10:05;17.80;99.90
10678;DHT22;5387;48.722;9.110;2023-05-15T12:12:34;19.90;99.90
10678;DHT22;5387;48.722;9.110;2023-05-15T12:15:01;22.20;99.90
10678;DHT22;5387;48.722;9.110;2023-05-15T12:17:30;22.40;99.90
10678;DHT22;5387;48.722;9.110;2023-05-15T12:19:58;23.10;99.90
10678;DHT22;5387;48.722;9.110;2023-05-15T12:22:25;24.10;99.90
10678;DHT22;5387;48.722;9.110;2023-05-15T12:24:57;24.00;98.20
10678;DHT22;5387;48.722;9.110;2023-05-15T12:27:24;21.40;98.70
10678;DHT22;5387;48.722;9.110;2023-05-15T12:29:51;21.30;99.90
10678;DHT22;5387;48.722;9.110;2023-05-15T12:32:19;20.90;99.80
10678;DHT22;5387;48.722;9.110;2023-05-15T12:34:46;19.30;99.80
10678;DHT22;5387;48.722;9.110;2023-05-15T12:37:13;18.90;99.90
10678;DHT22;5387;48.722;9.110;2023-05-15T12:39:53;18.70;99.90
10678;DHT22;5387;48.722;9.110;2023-05-15T12:42:21;18.50;99.90
10678;DHT22;5387;48.722;9.110;2023-05-15T12:44:49;18.40;99.90
10678;DHT22;5387;48.722;9.110;2023-05-15T12:47:21;18.50;99.90
10678;DHT22;5387;48.722;9.110;2023-05-15T12:49:49;18.00;99.90
10678;DHT22;5387;48.722;9.110;2023-05-15T12:52:15;18.30;99.90
10678;DHT22;5387;48.722;9.110;2023-05-15T12:54:43;19.70;99.90
10678;DHT22;5387;48.722;9.110;2023-05-15T12:57:13;20.00;99.90
10678;DHT22;5387;48.722;9.110;2023-05-15T12:59:40;19.80;99.90
10678;DHT22;5387;48.722;9.110;2023-05-15T13:02:09;19.50;99.90
10678;DHT22;5387;48.722;9.110;2023-05-15T13:04:36;19.30;99.90
10678;DHT22;5387;48.722;9.110;2023-05-15T13:07:03;19.10;99.90
10678;DHT22;5387;48.722;9.110;2023-05-15T13:09:30;18.90;99.90
10678;DHT22;5387;48.722;9.110;2023-05-15T13:11:57;19.30;99.90
10678;DHT22;5387;48.722;9.110;2023-05-15T13:14:31;19.50;99.90
10678;DHT22;5387;48.722;9.110;2023-05-15T13:16:59;19.40;99.90
10678;DHT22;5387;48.722;9.110;2023-05-15T13:19:27;19.20;99.90
10678;DHT22;5387;48.722;9.110;2023-05-15T13:21:54;19.10;99.90
10678;DHT22;5387;48.722;9.110;2023-05-15T13:24:21;18.70;99.90
10678;DHT22;5387;48.722;9.110;2023-05-15T13:26:47;18.40;99.90
10678;DHT22;5387;48.722;9.110;2023-05-15T13:29:14;18.50;99.90
10678;DHT22;5387;48.722;9.110;2023-05-15T13:31:43;19.20;99.90
10678;DHT22;5387;48.722;9.110;2023-05-15T13:34:09;20.20;99.90
10678;DHT22;5387;48.722;9.110;2023-05-15T13:36:36;21.10;99.90
10678;DHT22;5387;48.722;9.110;2023-05-15T13:39:03;22.40;99.90
10678;DHT22;5387;48.722;9.110;2023-05-15T13:41:30;22.80;99.90
10678;DHT22;5387;48.722;9.110;2023-05-15T13:43:57;22.10;99.90
10678;DHT22;5387;48.722;9.110;2023-05-15T13:46:24;21.40;99.90
10678;DHT22;5387;48.722;9.110;2023-05-15T13:48:52;21.30;99.90
10678;DHT22;5387;48.722;9.110;2023-05-15T13:51:19;21.20;99.90
10678;DHT22;5387;48.722;9.110;2023-05-15T13:53:46;20.40;99.90
10678;DHT22;5387;48.722;9.110;2023-05-15T13:56:12;19.30;99.90
10678;DHT22;5387;48.722;9.110;2023-05-15T13:58:39;18.70;99.90
10678;DHT22;5387;48.722;9.110;2023-05-15T14:01:06;18.70;99.90
10678;DHT22;5387;48.722;9.110;2023-05-15T14:03:33;18.20;99.90
10678;DHT22;5387;48.722;9.110;2023-05-15T14:06:01;18.00;99.90
10678;DHT22;5387;48.722;9.110;2023-05-15T14:08:28;17.60;99.90
10678;DHT22;5387;48.722;9.110;2023-05-15T14:10:55;17.50;99.90
10678;DHT22;5387;48.722;9.110;2023-05-15T14:13:22;17.40;99.90
10678;DHT22;5387;48.722;9.110;2023-05-15T14:15:49;17.50;99.90
10678;DHT22;5387;48.722;9.110;2023-05-15T14:18:16;17.50;99.90
10678;DHT22;5387;48.722;9.110;2023-05-15T14:20:42;17.70;99.90
10678;DHT22;5387;48.722;9.110;2023-05-15T14:23:11;18.00;99.90
10678;DHT22;5387;48.722;9.110;2023-05-15T14:25:37;18.40;99.90
10678;DHT22;5387;48.722;9.110;2023-05-15T14:28:04;18.80;99.90
10678;DHT22;5387;48.722;9.110;2023-05-15T14:30:31;19.30;99.90
10678;DHT22;5387;48.722;9.110;2023-05-15T14:32:58;19.80;99.90
10678;DHT22;5387;48.722;9.110;2023-05-15T14:35:25;20.00;99.90
10678;DHT22;5387;48.722;9.110;2023-05-15T14:37:52;20.50;99.90
10678;DHT22;5387;48.722;9.110;2023-05-15T14:40:20;20.30;99.90
10678;DHT22;5387;48.722;9.110;2023-05-15T14:42:47;20.20;99.90
10678;DHT22;5387;48.722;9.110;2023-05-15T14:45:14;19.90;99.90
10678;DHT22;5387;48.722;9.110;2023-05-15T14:47:41;19.40;99.90
10678;DHT22;5387;48.722;9.110;2023-05-15T14:50:07;18.70;99.90
10678;DHT22;5387;48.722;9.110;2023-05-15T14:52:35;18.20;99.90
10678;DHT22;5387;48.722;9.110;2023-05-15T14:55:02;18.40;99.90
10678;DHT22;5387;48.722;9.110;2023-05-15T14:57:32;18.50;99.90
10678;DHT22;5387;48.722;9.110;2023-05-15T14:59:58;18.00;99.90
10678;DHT22;5387;48.722;9.110;2023-05-15T15:02:25;17.70;99.90
10678;DHT22;5387;48.722;9.110;2023-05-15T15:04:52;17.40;99.90
10678;DHT22;5387;48.722;9.110;2023-05-15T15:07:19;17.50;99.90
10678;DHT22;5387;48.722;9.110;2023-05-15T15:09:46;17.40;99.90
10678;DHT22;5387;48.722;9.110;2023-05-15T15:12:12;17.20;99.90
10678;DHT22;5387;48.722;9.110;2023-05-15T15:14:41;17.30;99.90
10678;DHT22;5387;48.722;9.110;2023-05-15T15:17:08;17.30;99.90
10678;DHT22;5387;48.722;9.110;2023-05-15T15:19:34;17.10;99.90
10678;DHT22;5387;48.722;9.110;2023-05-15T15:22:01;16.70;99.90
10678;DHT22;5387;48.722;9.110;2023-05-15T15:24:28;16.40;99.90
10678;DHT22;5387;48.722;9.110;2023-05-15T15:26:55;16.30;99.90
10678;DHT22;5387;48.722;9.110;2023-05-15T15:29:21;16.10;99.90
10678;DHT22;5387;48.722;9.110;2023-05-15T15:31:50;16.20;99.90
10678;DHT22;5387;48.722;9.110;2023-05-15T15:34:16;15.60;99.90
10678;DHT22;5387;48.722;9.110;2023-05-15T15:36:43;15.80;99.90
10678;DHT22;5387;48.722;9.110;2023-05-15T15:39:10;15.70;99.90
10678;DHT22;5387;48.722;9.110;2023-05-15T15:41:37;15.50;99.90
10678;DHT22;5387;48.722;9.110;2023-05-15T15:44:04;15.30;99.90
10678;DHT22;5387;48.722;9.110;2023-05-15T15:46:31;15.30;99.90
10678;DHT22;5387;48.722;9.110;2023-05-15T15:48:59;15.30;99.90
10678;DHT22;5387;48.722;9.110;2023-05-15T15:51:26;15.50;99.90
10678;DHT22;5387;48.722;9.110;2023-05-15T15:53:53;15.40;99.90
10678;DHT22;5387;48.722;9.110;2023-05-15T15:56:20;15.40;99.90
10678;DHT22;5387;48.722;9.110;2023-05-15T15:58:46;15.10;99.90